KOPL/OPL METAR and TAF weather

Enter ICAO airport designator
Station Type Date Time Source
KOPL METAR 2021/01/22 05:55 UTC NOAA

KOPL 220555Z AUTO 33003KT 5SM RA SCT004 BKN017 OVC034 17/17 A2992 RMK AO2 P0027 60034 T01720168 10191 20172 402040148


Station Type Date Time Source
KOPL Decoded METAR 2021/01/22 05:55 UTC NOAA

Station name not available
Jan 22, 2021 - 12:55 AM EST / 2021.01.22 0555 UTC
Wind: from the NNW (330 degrees) at 3 MPH (3 KT):0
Visibility: 5 mile(s):0
Sky conditions: overcast
Weather: rain
Precipitation last hour: 0.27 inches
Temperature: 63.0 F (17.2 C)
Dew Point: 62.2 F (16.8 C)
Relative Humidity: 97%
Pressure (altimeter): 29.92 in. Hg (1013 hPa)
ob: KOPL 220555Z AUTO 33003KT 5SM RA SCT004 BKN017 OVC034 17/17 A2992 RMK AO2 P0027 60034 T01720168 10191 20172 402040148
cycle: 6

Station Type Date Time Source
KOPL TAF UTC NOAA

Error!

Example: see airport list